Ogelthorpe, Georgia
Current Conditions -  °F | °C
As of 1:35 AM on Sunday 21 Dec 2014 (Local Time) from KACJ Reporting Station
Overcast Overcast  
Wind Chill: 52°   Ceiling: 700
Heat Index: 52°   Visibility: 10mi
Dew Point: 52°   Wind: 6mph
Humidity: 100%   Direction: 70°ENE
Pressure: 30.18"   Gusts: NA
Location:  32.266°N, 84.1148°W
Report Text: KACJ 210635Z AUTO 07005KT 10SM OVC007 11/11 A3018 RMK AO2
Loading
Personal Weather Stations






























Interactive Weather Map New forecast layout! Learn more

10-Day Weather Forecast

Advertisements
Track Severe Weather on mobile